Punto Fijo, Venezuela
Current Conditions -  °F | °C
As of 9:00 AM on Friday 28 Nov 2014 (Local Time) from TNCA Reporting Station
Scattered Clouds Scattered Clouds  
Wind Chill: 84°   Ceiling: Unl
Heat Index: 92°   Visibility: 6mi
Dew Point: 75°   Wind: 15mph
Humidity: 74%   Direction: 90°E
Pressure: 29.88"   Gusts: NA
Location:  11.71°N, 70.2°W
Report Text: TNCA 281300Z 09013KT 9999 SCT020 29/24 Q1012 A2991 NOSIG
Loading
Personal Weather Stations






























Interactive Weather Map New forecast layout! Learn more

10-Day Weather Forecast

Advertisements
Track Severe Weather on mobile